sensor_id;sensor_type;location;lat;lon;timestamp;P1;durP1;ratioP1;P2;durP2;ratioP2
70213;SDS011;60138;55.808;37.078;2022-11-11T00:01:37;41.83;;;21.07;;
70213;SDS011;60138;55.808;37.078;2022-11-11T00:04:21;41.60;;;20.60;;
70213;SDS011;60138;55.808;37.078;2022-11-11T00:07:06;44.83;;;20.35;;
70213;SDS011;60138;55.808;37.078;2022-11-11T00:09:50;40.95;;;21.30;;
70213;SDS011;60138;55.808;37.078;2022-11-11T00:12:34;42.47;;;21.67;;
70213;SDS011;60138;55.808;37.078;2022-11-11T00:15:18;41.30;;;19.30;;
70213;SDS011;60138;55.808;37.078;2022-11-11T00:18:03;43.45;;;21.05;;
70213;SDS011;60138;55.808;37.078;2022-11-11T00:20:48;39.85;;;20.40;;
70213;SDS011;60138;55.808;37.078;2022-11-11T00:23:33;43.80;;;20.80;;
70213;SDS011;60138;55.808;37.078;2022-11-11T00:26:17;41.00;;;19.55;;
70213;SDS011;60138;55.808;37.078;2022-11-11T00:29:01;44.63;;;20.60;;
70213;SDS011;60138;55.808;37.078;2022-11-11T00:31:45;40.53;;;22.45;;
70213;SDS011;60138;55.808;37.078;2022-11-11T00:34:29;47.70;;;21.10;;
70213;SDS011;60138;55.808;37.078;2022-11-11T00:37:13;43.85;;;21.75;;
70213;SDS011;60138;55.808;37.078;2022-11-11T00:39:58;40.47;;;20.20;;
70213;SDS011;60138;55.808;37.078;2022-11-11T00:42:42;36.50;;;19.90;;
70213;SDS011;60138;55.808;37.078;2022-11-11T00:45:27;36.67;;;20.65;;
70213;SDS011;60138;55.808;37.078;2022-11-11T00:48:11;36.40;;;18.35;;
70213;SDS011;60138;55.808;37.078;2022-11-11T00:50:55;40.40;;;19.52;;
70213;SDS011;60138;55.808;37.078;2022-11-11T00:53:39;36.50;;;18.85;;
70213;SDS011;60138;55.808;37.078;2022-11-11T00:56:23;36.47;;;19.03;;
70213;SDS011;60138;55.808;37.078;2022-11-11T00:59:08;38.72;;;19.92;;
70213;SDS011;60138;55.808;37.078;2022-11-11T01:01:52;36.97;;;18.48;;
70213;SDS011;60138;55.808;37.078;2022-11-11T01:04:36;39.75;;;20.45;;
70213;SDS011;60138;55.808;37.078;2022-11-11T01:07:20;35.28;;;18.52;;
70213;SDS011;60138;55.808;37.078;2022-11-11T01:10:05;34.30;;;18.30;;
70213;SDS011;60138;55.808;37.078;2022-11-11T01:12:52;36.00;;;18.85;;
70213;SDS011;60138;55.808;37.078;2022-11-11T01:15:41;32.35;;;17.50;;
70213;SDS011;60138;55.808;37.078;2022-11-11T01:18:27;35.58;;;17.70;;
70213;SDS011;60138;55.808;37.078;2022-11-11T01:21:16;33.08;;;17.35;;
70213;SDS011;60138;55.808;37.078;2022-11-11T01:24:02;36.73;;;18.03;;
70213;SDS011;60138;55.808;37.078;2022-11-11T01:26:46;33.85;;;17.65;;
70213;SDS011;60138;55.808;37.078;2022-11-11T01:29:30;35.60;;;18.38;;
70213;SDS011;60138;55.808;37.078;2022-11-11T01:32:14;32.00;;;16.85;;
70213;SDS011;60138;55.808;37.078;2022-11-11T01:34:59;33.35;;;16.73;;
70213;SDS011;60138;55.808;37.078;2022-11-11T01:37:43;30.97;;;15.67;;
70213;SDS011;60138;55.808;37.078;2022-11-11T01:40:27;30.35;;;16.35;;
70213;SDS011;60138;55.808;37.078;2022-11-11T01:45:57;28.35;;;15.98;;
70213;SDS011;60138;55.808;37.078;2022-11-11T01:48:44;34.00;;;16.88;;
70213;SDS011;60138;55.808;37.078;2022-11-11T01:51:40;30.23;;;15.33;;
70213;SDS011;60138;55.808;37.078;2022-11-11T01:54:34;31.35;;;16.05;;
70213;SDS011;60138;55.808;37.078;2022-11-11T01:57:34;27.52;;;15.70;;
70213;SDS011;60138;55.808;37.078;2022-11-11T02:00:22;26.65;;;14.73;;
70213;SDS011;60138;55.808;37.078;2022-11-11T02:03:07;34.58;;;15.93;;
70213;SDS011;60138;55.808;37.078;2022-11-11T02:05:52;28.37;;;15.07;;
70213;SDS011;60138;55.808;37.078;2022-11-11T02:08:37;27.38;;;14.90;;
70213;SDS011;60138;55.808;37.078;2022-11-11T02:11:21;26.67;;;14.30;;
70213;SDS011;60138;55.808;37.078;2022-11-11T02:14:08;25.00;;;13.93;;
70213;SDS011;60138;55.808;37.078;2022-11-11T02:16:53;25.35;;;13.77;;
70213;SDS011;60138;55.808;37.078;2022-11-11T02:22:33;27.17;;;14.88;;
70213;SDS011;60138;55.808;37.078;2022-11-11T02:25:24;24.73;;;13.82;;
70213;SDS011;60138;55.808;37.078;2022-11-11T02:28:12;25.45;;;13.85;;
70213;SDS011;60138;55.808;37.078;2022-11-11T02:30:57;27.88;;;14.95;;
70213;SDS011;60138;55.808;37.078;2022-11-11T02:33:41;22.97;;;13.13;;
70213;SDS011;60138;55.808;37.078;2022-11-11T02:36:25;23.33;;;12.93;;
70213;SDS011;60138;55.808;37.078;2022-11-11T02:39:09;25.08;;;13.70;;
70213;SDS011;60138;55.808;37.078;2022-11-11T02:41:54;23.00;;;13.63;;
70213;SDS011;60138;55.808;37.078;2022-11-11T02:44:38;21.92;;;13.13;;
70213;SDS011;60138;55.808;37.078;2022-11-11T02:47:23;22.77;;;12.27;;
70213;SDS011;60138;55.808;37.078;2022-11-11T02:50:08;23.25;;;12.80;;
70213;SDS011;60138;55.808;37.078;2022-11-11T02:52:52;18.98;;;11.75;;
70213;SDS011;60138;55.808;37.078;2022-11-11T02:55:37;21.75;;;11.38;;
70213;SDS011;60138;55.808;37.078;2022-11-11T02:58:21;22.55;;;12.88;;
70213;SDS011;60138;55.808;37.078;2022-11-11T03:01:05;21.37;;;11.77;;
70213;SDS011;60138;55.808;37.078;2022-11-11T03:03:50;19.08;;;11.80;;
70213;SDS011;60138;55.808;37.078;2022-11-11T03:06:34;19.13;;;10.90;;
70213;SDS011;60138;55.808;37.078;2022-11-11T03:09:18;19.88;;;11.23;;
70213;SDS011;60138;55.808;37.078;2022-11-11T03:12:02;16.70;;;10.95;;
70213;SDS011;60138;55.808;37.078;2022-11-11T03:14:46;19.67;;;10.93;;
70213;SDS011;60138;55.808;37.078;2022-11-11T03:17:31;22.35;;;11.73;;
70213;SDS011;60138;55.808;37.078;2022-11-11T03:20:16;19.92;;;10.75;;
70213;SDS011;60138;55.808;37.078;2022-11-11T03:23:06;23.23;;;10.95;;
70213;SDS011;60138;55.808;37.078;2022-11-11T03:25:52;17.15;;;10.95;;
70213;SDS011;60138;55.808;37.078;2022-11-11T03:28:37;18.03;;;11.30;;
70213;SDS011;60138;55.808;37.078;2022-11-11T03:31:21;17.80;;;11.05;;
70213;SDS011;60138;55.808;37.078;2022-11-11T03:34:05;15.57;;;10.20;;
70213;SDS011;60138;55.808;37.078;2022-11-11T03:36:50;17.88;;;12.05;;
70213;SDS011;60138;55.808;37.078;2022-11-11T03:39:34;18.63;;;11.15;;
70213;SDS011;60138;55.808;37.078;2022-11-11T03:42:18;18.67;;;10.37;;
70213;SDS011;60138;55.808;37.078;2022-11-11T03:45:03;20.50;;;11.00;;
70213;SDS011;60138;55.808;37.078;2022-11-11T03:47:47;18.52;;;11.75;;
70213;SDS011;60138;55.808;37.078;2022-11-11T03:50:32;16.35;;;9.73;;
70213;SDS011;60138;55.808;37.078;2022-11-11T03:53:17;19.02;;;11.38;;
70213;SDS011;60138;55.808;37.078;2022-11-11T03:56:02;16.60;;;10.93;;
70213;SDS011;60138;55.808;37.078;2022-11-11T03:58:47;18.45;;;10.38;;
70213;SDS011;60138;55.808;37.078;2022-11-11T04:01:31;14.00;;;9.65;;
70213;SDS011;60138;55.808;37.078;2022-11-11T04:04:15;20.75;;;10.40;;
70213;SDS011;60138;55.808;37.078;2022-11-11T04:06:59;17.73;;;10.48;;
70213;SDS011;60138;55.808;37.078;2022-11-11T04:09:43;18.33;;;10.43;;
70213;SDS011;60138;55.808;37.078;2022-11-11T04:12:29;17.98;;;10.60;;
70213;SDS011;60138;55.808;37.078;2022-11-11T04:15:14;17.80;;;11.13;;
70213;SDS011;60138;55.808;37.078;2022-11-11T04:17:58;15.85;;;9.85;;
70213;SDS011;60138;55.808;37.078;2022-11-11T04:20:43;17.52;;;9.63;;
70213;SDS011;60138;55.808;37.078;2022-11-11T04:23:27;18.07;;;10.43;;
70213;SDS011;60138;55.808;37.078;2022-11-11T04:26:11;18.92;;;10.93;;
70213;SDS011;60138;55.808;37.078;2022-11-11T04:28:55;17.95;;;10.40;;
70213;SDS011;60138;55.808;37.078;2022-11-11T04:31:40;17.33;;;9.60;;
70213;SDS011;60138;55.808;37.078;2022-11-11T04:34:24;16.08;;;9.80;;
70213;SDS011;60138;55.808;37.078;2022-11-11T04:37:08;14.80;;;9.03;;
70213;SDS011;60138;55.808;37.078;2022-11-11T04:39:52;14.95;;;9.85;;
70213;SDS011;60138;55.808;37.078;2022-11-11T04:42:37;18.02;;;10.10;;
70213;SDS011;60138;55.808;37.078;2022-11-11T04:45:22;16.02;;;10.32;;
70213;SDS011;60138;55.808;37.078;2022-11-11T04:48:07;40.90;;;10.38;;
70213;SDS011;60138;55.808;37.078;2022-11-11T04:50:53;14.63;;;9.83;;
70213;SDS011;60138;55.808;37.078;2022-11-11T04:53:37;16.60;;;10.32;;
70213;SDS011;60138;55.808;37.078;2022-11-11T04:56:21;16.60;;;10.38;;
70213;SDS011;60138;55.808;37.078;2022-11-11T04:59:05;15.35;;;9.38;;
70213;SDS011;60138;55.808;37.078;2022-11-11T05:01:49;16.67;;;9.27;;
70213;SDS011;60138;55.808;37.078;2022-11-11T05:04:33;17.50;;;9.50;;
70213;SDS011;60138;55.808;37.078;2022-11-11T05:07:18;14.50;;;10.02;;
70213;SDS011;60138;55.808;37.078;2022-11-11T05:10:02;15.02;;;9.40;;
70213;SDS011;60138;55.808;37.078;2022-11-11T05:12:46;10.65;;;7.70;;
70213;SDS011;60138;55.808;37.078;2022-11-11T05:15:31;14.25;;;9.20;;
70213;SDS011;60138;55.808;37.078;2022-11-11T05:18:15;17.47;;;9.90;;
70213;SDS011;60138;55.808;37.078;2022-11-11T05:20:59;13.43;;;9.32;;
70213;SDS011;60138;55.808;37.078;2022-11-11T05:23:43;14.68;;;9.60;;
70213;SDS011;60138;55.808;37.078;2022-11-11T05:26:27;15.55;;;9.52;;
70213;SDS011;60138;55.808;37.078;2022-11-11T05:29:11;13.32;;;9.20;;
70213;SDS011;60138;55.808;37.078;2022-11-11T05:31:56;16.13;;;9.23;;
70213;SDS011;60138;55.808;37.078;2022-11-11T05:34:40;14.40;;;9.10;;
70213;SDS011;60138;55.808;37.078;2022-11-11T05:37:24;13.30;;;9.55;;
70213;SDS011;60138;55.808;37.078;2022-11-11T05:40:08;13.80;;;8.20;;
70213;SDS011;60138;55.808;37.078;2022-11-11T05:42:54;16.17;;;8.05;;
70213;SDS011;60138;55.808;37.078;2022-11-11T05:45:39;12.30;;;7.47;;
70213;SDS011;60138;55.808;37.078;2022-11-11T05:48:24;14.32;;;8.10;;
70213;SDS011;60138;55.808;37.078;2022-11-11T05:51:08;12.13;;;8.00;;
70213;SDS011;60138;55.808;37.078;2022-11-11T05:53:52;13.30;;;7.88;;
70213;SDS011;60138;55.808;37.078;2022-11-11T05:56:37;15.07;;;8.88;;
70213;SDS011;60138;55.808;37.078;2022-11-11T05:59:21;12.97;;;8.20;;
70213;SDS011;60138;55.808;37.078;2022-11-11T06:02:06;15.52;;;8.95;;
70213;SDS011;60138;55.808;37.078;2022-11-11T06:04:50;12.65;;;8.65;;
70213;SDS011;60138;55.808;37.078;2022-11-11T06:07:37;12.80;;;8.70;;
70213;SDS011;60138;55.808;37.078;2022-11-11T06:10:21;15.43;;;8.70;;
70213;SDS011;60138;55.808;37.078;2022-11-11T06:13:06;11.63;;;8.57;;
70213;SDS011;60138;55.808;37.078;2022-11-11T06:15:50;16.75;;;8.73;;
70213;SDS011;60138;55.808;37.078;2022-11-11T06:18:34;15.05;;;8.07;;
70213;SDS011;60138;55.808;37.078;2022-11-11T06:21:19;12.13;;;8.32;;
70213;SDS011;60138;55.808;37.078;2022-11-11T06:24:03;14.57;;;8.77;;
70213;SDS011;60138;55.808;37.078;2022-11-11T06:26:48;11.77;;;8.37;;
70213;SDS011;60138;55.808;37.078;2022-11-11T06:29:32;11.90;;;8.52;;
70213;SDS011;60138;55.808;37.078;2022-11-11T06:32:17;12.40;;;8.82;;
70213;SDS011;60138;55.808;37.078;2022-11-11T06:35:01;13.00;;;8.85;;
70213;SDS011;60138;55.808;37.078;2022-11-11T06:37:45;13.00;;;9.05;;
70213;SDS011;60138;55.808;37.078;2022-11-11T06:40:29;12.53;;;8.70;;
70213;SDS011;60138;55.808;37.078;2022-11-11T06:43:13;10.68;;;8.18;;
70213;SDS011;60138;55.808;37.078;2022-11-11T06:45:58;15.07;;;7.93;;
70213;SDS011;60138;55.808;37.078;2022-11-11T06:48:42;13.57;;;8.68;;
70213;SDS011;60138;55.808;37.078;2022-11-11T06:51:26;12.18;;;7.10;;
70213;SDS011;60138;55.808;37.078;2022-11-11T06:54:10;15.87;;;8.37;;
70213;SDS011;60138;55.808;37.078;2022-11-11T06:56:54;10.23;;;7.65;;
70213;SDS011;60138;55.808;37.078;2022-11-11T06:59:38;13.48;;;7.75;;
70213;SDS011;60138;55.808;37.078;2022-11-11T07:02:22;14.52;;;8.57;;
70213;SDS011;60138;55.808;37.078;2022-11-11T07:05:06;14.07;;;8.45;;
70213;SDS011;60138;55.808;37.078;2022-11-11T07:07:50;13.73;;;8.40;;
70213;SDS011;60138;55.808;37.078;2022-11-11T07:10:35;12.23;;;7.78;;
70213;SDS011;60138;55.808;37.078;2022-11-11T07:13:21;15.82;;;8.75;;
70213;SDS011;60138;55.808;37.078;2022-11-11T07:16:05;14.63;;;8.32;;
70213;SDS011;60138;55.808;37.078;2022-11-11T07:18:50;13.15;;;8.73;;
70213;SDS011;60138;55.808;37.078;2022-11-11T07:21:34;14.93;;;8.50;;
70213;SDS011;60138;55.808;37.078;2022-11-11T07:24:18;14.15;;;8.65;;
70213;SDS011;60138;55.808;37.078;2022-11-11T07:27:02;15.07;;;9.68;;
70213;SDS011;60138;55.808;37.078;2022-11-11T07:29:46;18.13;;;9.82;;
70213;SDS011;60138;55.808;37.078;2022-11-11T07:32:31;16.08;;;8.10;;
70213;SDS011;60138;55.808;37.078;2022-11-11T07:35:15;17.07;;;8.33;;
70213;SDS011;60138;55.808;37.078;2022-11-11T07:38:01;14.30;;;8.05;;
70213;SDS011;60138;55.808;37.078;2022-11-11T07:40:45;19.10;;;9.35;;
70213;SDS011;60138;55.808;37.078;2022-11-11T07:43:29;15.60;;;8.63;;
70213;SDS011;60138;55.808;37.078;2022-11-11T07:46:13;14.63;;;8.52;;
70213;SDS011;60138;55.808;37.078;2022-11-11T07:48:57;13.40;;;8.30;;
70213;SDS011;60138;55.808;37.078;2022-11-11T07:51:42;12.00;;;7.25;;
70213;SDS011;60138;55.808;37.078;2022-11-11T07:54:27;15.73;;;7.32;;
70213;SDS011;60138;55.808;37.078;2022-11-11T07:57:11;11.55;;;7.43;;
70213;SDS011;60138;55.808;37.078;2022-11-11T07:59:55;12.60;;;7.95;;
70213;SDS011;60138;55.808;37.078;2022-11-11T08:02:39;12.37;;;7.53;;
70213;SDS011;60138;55.808;37.078;2022-11-11T08:05:23;11.45;;;6.75;;
70213;SDS011;60138;55.808;37.078;2022-11-11T08:08:08;11.38;;;6.53;;
70213;SDS011;60138;55.808;37.078;2022-11-11T08:10:53;11.68;;;6.50;;
70213;SDS011;60138;55.808;37.078;2022-11-11T08:13:38;9.73;;;6.32;;
70213;SDS011;60138;55.808;37.078;2022-11-11T08:16:23;10.77;;;7.53;;
70213;SDS011;60138;55.808;37.078;2022-11-11T08:19:07;9.80;;;6.43;;
70213;SDS011;60138;55.808;37.078;2022-11-11T08:21:51;9.10;;;6.32;;
70213;SDS011;60138;55.808;37.078;2022-11-11T08:24:36;9.80;;;6.38;;
70213;SDS011;60138;55.808;37.078;2022-11-11T08:27:20;9.52;;;6.45;;
70213;SDS011;60138;55.808;37.078;2022-11-11T08:30:06;12.53;;;6.70;;
70213;SDS011;60138;55.808;37.078;2022-11-11T08:32:58;10.50;;;6.47;;
70213;SDS011;60138;55.808;37.078;2022-11-11T08:35:43;9.77;;;5.93;;
70213;SDS011;60138;55.808;37.078;2022-11-11T08:38:27;10.27;;;6.60;;
70213;SDS011;60138;55.808;37.078;2022-11-11T08:41:11;9.95;;;6.05;;
70213;SDS011;60138;55.808;37.078;2022-11-11T08:43:55;9.70;;;6.00;;
70213;SDS011;60138;55.808;37.078;2022-11-11T08:46:39;8.80;;;6.13;;
70213;SDS011;60138;55.808;37.078;2022-11-11T08:49:23;8.50;;;5.38;;
70213;SDS011;60138;55.808;37.078;2022-11-11T08:52:07;9.32;;;6.13;;
70213;SDS011;60138;55.808;37.078;2022-11-11T08:54:51;10.75;;;5.72;;
70213;SDS011;60138;55.808;37.078;2022-11-11T08:57:35;6.33;;;4.90;;
70213;SDS011;60138;55.808;37.078;2022-11-11T09:00:19;8.95;;;5.95;;
70213;SDS011;60138;55.808;37.078;2022-11-11T09:03:08;7.45;;;5.15;;
70213;SDS011;60138;55.808;37.078;2022-11-11T09:05:54;6.88;;;4.85;;
70213;SDS011;60138;55.808;37.078;2022-11-11T09:08:42;12.27;;;5.85;;
70213;SDS011;60138;55.808;37.078;2022-11-11T09:11:27;6.93;;;4.67;;
70213;SDS011;60138;55.808;37.078;2022-11-11T09:14:11;8.90;;;5.93;;
70213;SDS011;60138;55.808;37.078;2022-11-11T09:16:55;9.05;;;5.22;;
70213;SDS011;60138;55.808;37.078;2022-11-11T09:19:39;6.35;;;4.25;;
70213;SDS011;60138;55.808;37.078;2022-11-11T09:22:23;8.18;;;5.28;;
70213;SDS011;60138;55.808;37.078;2022-11-11T09:25:08;7.83;;;5.60;;
70213;SDS011;60138;55.808;37.078;2022-11-11T09:27:56;8.10;;;5.15;;
70213;SDS011;60138;55.808;37.078;2022-11-11T09:30:42;8.95;;;5.47;;
70213;SDS011;60138;55.808;37.078;2022-11-11T09:33:26;10.45;;;5.78;;
70213;SDS011;60138;55.808;37.078;2022-11-11T09:36:10;7.57;;;5.22;;
70213;SDS011;60138;55.808;37.078;2022-11-11T09:38:54;9.10;;;5.83;;
70213;SDS011;60138;55.808;37.078;2022-11-11T09:47:40;7.10;;;5.38;;
70213;SDS011;60138;55.808;37.078;2022-11-11T09:50:31;8.10;;;5.45;;
70213;SDS011;60138;55.808;37.078;2022-11-11T09:53:41;8.47;;;5.87;;
70213;SDS011;60138;55.808;37.078;2022-11-11T09:56:30;8.45;;;5.78;;
70213;SDS011;60138;55.808;37.078;2022-11-11T09:59:26;8.00;;;5.65;;
70213;SDS011;60138;55.808;37.078;2022-11-11T10:05:29;10.23;;;6.28;;
70213;SDS011;60138;55.808;37.078;2022-11-11T10:08:21;9.07;;;5.07;;
70213;SDS011;60138;55.808;37.078;2022-11-11T10:11:17;8.48;;;5.85;;
70213;SDS011;60138;55.808;37.078;2022-11-11T10:14:08;10.90;;;6.05;;
70213;SDS011;60138;55.808;37.078;2022-11-11T10:22:48;11.53;;;6.20;;
70213;SDS011;60138;55.808;37.078;2022-11-11T10:25:36;10.35;;;6.32;;
70213;SDS011;60138;55.808;37.078;2022-11-11T10:28:29;9.82;;;5.93;;
70213;SDS011;60138;55.808;37.078;2022-11-11T10:31:19;10.32;;;6.15;;
70213;SDS011;60138;55.808;37.078;2022-11-11T10:34:08;8.73;;;6.15;;
70213;SDS011;60138;55.808;37.078;2022-11-11T10:36:54;10.50;;;6.07;;
70213;SDS011;60138;55.808;37.078;2022-11-11T10:42:24;7.63;;;5.88;;
70213;SDS011;60138;55.808;37.078;2022-11-11T10:45:20;9.32;;;5.82;;
70213;SDS011;60138;55.808;37.078;2022-11-11T10:48:19;9.10;;;5.90;;
70213;SDS011;60138;55.808;37.078;2022-11-11T10:51:08;8.57;;;5.80;;
70213;SDS011;60138;55.808;37.078;2022-11-11T10:57:00;8.93;;;5.93;;
70213;SDS011;60138;55.808;37.078;2022-11-11T11:00:07;8.65;;;5.93;;
70213;SDS011;60138;55.808;37.078;2022-11-11T11:03:01;9.50;;;6.40;;
70213;SDS011;60138;55.808;37.078;2022-11-11T11:05:57;9.87;;;6.53;;
70213;SDS011;60138;55.808;37.078;2022-11-11T11:08:46;9.55;;;6.35;;
70213;SDS011;60138;55.808;37.078;2022-11-11T11:11:35;11.63;;;6.05;;
70213;SDS011;60138;55.808;37.078;2022-11-11T11:14:28;9.90;;;6.30;;
70213;SDS011;60138;55.808;37.078;2022-11-11T11:17:15;11.98;;;6.25;;
70213;SDS011;60138;55.808;37.078;2022-11-11T11:20:09;15.30;;;7.87;;
70213;SDS011;60138;55.808;37.078;2022-11-11T11:22:56;10.93;;;7.03;;
70213;SDS011;60138;55.808;37.078;2022-11-11T11:25:41;11.95;;;7.53;;
70213;SDS011;60138;55.808;37.078;2022-11-11T11:28:55;8.38;;;5.90;;
70213;SDS011;60138;55.808;37.078;2022-11-11T11:31:43;10.55;;;6.03;;
70213;SDS011;60138;55.808;37.078;2022-11-11T11:34:47;10.63;;;6.47;;
70213;SDS011;60138;55.808;37.078;2022-11-11T11:37:48;9.35;;;7.18;;
70213;SDS011;60138;55.808;37.078;2022-11-11T11:43:39;10.30;;;7.00;;
70213;SDS011;60138;55.808;37.078;2022-11-11T11:46:27;10.60;;;5.97;;
70213;SDS011;60138;55.808;37.078;2022-11-11T11:49:23;9.70;;;5.47;;
70213;SDS011;60138;55.808;37.078;2022-11-11T11:52:12;10.82;;;6.68;;
70213;SDS011;60138;55.808;37.078;2022-11-11T11:55:20;10.27;;;7.38;;
70213;SDS011;60138;55.808;37.078;2022-11-11T12:01:38;9.10;;;6.05;;
70213;SDS011;60138;55.808;37.078;2022-11-11T12:26:02;10.45;;;6.57;;
70213;SDS011;60138;55.808;37.078;2022-11-11T12:28:56;9.68;;;6.38;;
70213;SDS011;60138;55.808;37.078;2022-11-11T12:44:02;7.55;;;5.82;;
70213;SDS011;60138;55.808;37.078;2022-11-11T12:50:21;6.30;;;4.43;;
70213;SDS011;60138;55.808;37.078;2022-11-11T13:09:33;6.88;;;5.63;;
70213;SDS011;60138;55.808;37.078;2022-11-11T13:12:37;7.38;;;5.65;;
70213;SDS011;60138;55.808;37.078;2022-11-11T13:15:46;8.82;;;4.80;;
70213;SDS011;60138;55.808;37.078;2022-11-11T13:21:46;7.43;;;4.80;;
70213;SDS011;60138;55.808;37.078;2022-11-11T13:24:33;6.55;;;5.28;;
70213;SDS011;60138;55.808;37.078;2022-11-11T13:33:40;21.55;;;4.88;;
70213;SDS011;60138;55.808;37.078;2022-11-11T13:36:39;9.33;;;4.37;;
70213;SDS011;60138;55.808;37.078;2022-11-11T13:39:30;7.55;;;4.13;;
70213;SDS011;60138;55.808;37.078;2022-11-11T13:42:40;9.77;;;4.90;;
70213;SDS011;60138;55.808;37.078;2022-11-11T13:45:32;6.28;;;4.45;;
70213;SDS011;60138;55.808;37.078;2022-11-11T13:51:22;7.87;;;4.37;;
70213;SDS011;60138;55.808;37.078;2022-11-11T13:54:33;6.50;;;4.72;;
70213;SDS011;60138;55.808;37.078;2022-11-11T13:57:21;10.20;;;5.85;;
70213;SDS011;60138;55.808;37.078;2022-11-11T14:08:59;9.23;;;6.47;;
70213;SDS011;60138;55.808;37.078;2022-11-11T14:11:43;10.52;;;5.40;;
70213;SDS011;60138;55.808;37.078;2022-11-11T14:17:14;9.27;;;5.55;;
70213;SDS011;60138;55.808;37.078;2022-11-11T14:28:59;7.70;;;5.55;;
70213;SDS011;60138;55.808;37.078;2022-11-11T14:31:48;10.35;;;5.95;;
70213;SDS011;60138;55.808;37.078;2022-11-11T14:40:55;7.60;;;4.55;;
70213;SDS011;60138;55.808;37.078;2022-11-11T14:43:39;7.45;;;4.85;;
70213;SDS011;60138;55.808;37.078;2022-11-11T14:46:23;9.05;;;5.72;;
70213;SDS011;60138;55.808;37.078;2022-11-11T14:49:07;7.63;;;5.10;;
70213;SDS011;60138;55.808;37.078;2022-11-11T14:51:52;7.60;;;5.60;;
70213;SDS011;60138;55.808;37.078;2022-11-11T15:00:52;6.10;;;4.35;;
70213;SDS011;60138;55.808;37.078;2022-11-11T15:03:44;6.33;;;4.83;;
70213;SDS011;60138;55.808;37.078;2022-11-11T15:06:33;8.70;;;5.65;;
70213;SDS011;60138;55.808;37.078;2022-11-11T15:09:33;6.53;;;4.93;;
70213;SDS011;60138;55.808;37.078;2022-11-11T15:15:43;9.23;;;5.05;;
70213;SDS011;60138;55.808;37.078;2022-11-11T15:34:19;9.20;;;5.07;;
70213;SDS011;60138;55.808;37.078;2022-11-11T15:37:21;8.80;;;5.38;;
70213;SDS011;60138;55.808;37.078;2022-11-11T15:40:16;7.68;;;4.95;;
70213;SDS011;60138;55.808;37.078;2022-11-11T15:43:02;7.53;;;5.15;;
70213;SDS011;60138;55.808;37.078;2022-11-11T15:45:57;6.78;;;4.55;;
70213;SDS011;60138;55.808;37.078;2022-11-11T15:48:43;6.43;;;4.37;;
70213;SDS011;60138;55.808;37.078;2022-11-11T15:51:28;6.95;;;5.05;;
70213;SDS011;60138;55.808;37.078;2022-11-11T15:56:58;10.38;;;5.97;;
70213;SDS011;60138;55.808;37.078;2022-11-11T15:59:42;7.55;;;4.85;;
70213;SDS011;60138;55.808;37.078;2022-11-11T16:02:30;6.67;;;5.10;;
70213;SDS011;60138;55.808;37.078;2022-11-11T16:05:35;6.93;;;5.05;;
70213;SDS011;60138;55.808;37.078;2022-11-11T16:08:19;10.68;;;4.78;;
70213;SDS011;60138;55.808;37.078;2022-11-11T16:11:04;8.35;;;5.40;;
70213;SDS011;60138;55.808;37.078;2022-11-11T16:13:58;6.35;;;4.88;;
70213;SDS011;60138;55.808;37.078;2022-11-11T16:16:46;7.40;;;5.33;;
70213;SDS011;60138;55.808;37.078;2022-11-11T16:19:35;10.10;;;5.72;;
70213;SDS011;60138;55.808;37.078;2022-11-11T16:22:28;9.90;;;5.63;;
70213;SDS011;60138;55.808;37.078;2022-11-11T16:25:19;7.32;;;5.32;;
70213;SDS011;60138;55.808;37.078;2022-11-11T16:28:04;9.27;;;4.63;;
70213;SDS011;60138;55.808;37.078;2022-11-11T16:30:49;9.73;;;5.33;;
70213;SDS011;60138;55.808;37.078;2022-11-11T16:33:33;7.55;;;4.85;;
70213;SDS011;60138;55.808;37.078;2022-11-11T16:36:17;6.32;;;4.75;;
70213;SDS011;60138;55.808;37.078;2022-11-11T16:39:12;6.88;;;5.55;;
70213;SDS011;60138;55.808;37.078;2022-11-11T16:42:21;7.75;;;4.65;;
70213;SDS011;60138;55.808;37.078;2022-11-11T16:45:20;7.37;;;4.27;;
70213;SDS011;60138;55.808;37.078;2022-11-11T16:48:06;7.45;;;5.30;;
70213;SDS011;60138;55.808;37.078;2022-11-11T16:51:16;8.23;;;5.28;;
70213;SDS011;60138;55.808;37.078;2022-11-11T16:57:04;8.27;;;5.75;;
70213;SDS011;60138;55.808;37.078;2022-11-11T16:59:50;6.50;;;4.77;;
70213;SDS011;60138;55.808;37.078;2022-11-11T17:02:38;6.63;;;4.60;;
70213;SDS011;60138;55.808;37.078;2022-11-11T17:08:39;6.90;;;4.15;;
70213;SDS011;60138;55.808;37.078;2022-11-11T17:14:21;6.80;;;4.67;;
70213;SDS011;60138;55.808;37.078;2022-11-11T17:17:06;7.75;;;5.03;;
70213;SDS011;60138;55.808;37.078;2022-11-11T17:19:52;8.15;;;4.95;;
70213;SDS011;60138;55.808;37.078;2022-11-11T17:22:44;6.95;;;4.30;;
70213;SDS011;60138;55.808;37.078;2022-11-11T17:25:29;7.82;;;5.32;;
70213;SDS011;60138;55.808;37.078;2022-11-11T17:28:13;6.50;;;5.30;;
70213;SDS011;60138;55.808;37.078;2022-11-11T17:31:01;7.63;;;5.80;;
70213;SDS011;60138;55.808;37.078;2022-11-11T17:33:49;7.30;;;5.30;;
70213;SDS011;60138;55.808;37.078;2022-11-11T17:36:34;7.35;;;4.72;;
70213;SDS011;60138;55.808;37.078;2022-11-11T17:39:18;9.13;;;5.97;;
70213;SDS011;60138;55.808;37.078;2022-11-11T17:42:02;8.63;;;4.47;;
70213;SDS011;60138;55.808;37.078;2022-11-11T17:44:46;9.13;;;5.30;;
70213;SDS011;60138;55.808;37.078;2022-11-11T17:47:31;10.30;;;5.68;;
70213;SDS011;60138;55.808;37.078;2022-11-11T17:50:15;8.43;;;5.03;;
70213;SDS011;60138;55.808;37.078;2022-11-11T17:52:59;8.57;;;6.13;;
70213;SDS011;60138;55.808;37.078;2022-11-11T17:55:43;9.00;;;5.97;;
70213;SDS011;60138;55.808;37.078;2022-11-11T17:58:28;7.68;;;6.18;;
70213;SDS011;60138;55.808;37.078;2022-11-11T18:01:13;9.90;;;6.65;;
70213;SDS011;60138;55.808;37.078;2022-11-11T18:03:58;9.00;;;6.15;;
70213;SDS011;60138;55.808;37.078;2022-11-11T18:06:43;10.60;;;6.32;;
70213;SDS011;60138;55.808;37.078;2022-11-11T18:09:27;13.20;;;7.57;;
70213;SDS011;60138;55.808;37.078;2022-11-11T18:12:11;10.07;;;6.53;;
70213;SDS011;60138;55.808;37.078;2022-11-11T18:14:56;11.50;;;6.55;;
70213;SDS011;60138;55.808;37.078;2022-11-11T18:17:40;8.50;;;6.85;;
70213;SDS011;60138;55.808;37.078;2022-11-11T18:20:24;11.95;;;6.78;;
70213;SDS011;60138;55.808;37.078;2022-11-11T18:23:08;9.27;;;6.40;;
70213;SDS011;60138;55.808;37.078;2022-11-11T18:25:55;10.27;;;7.05;;
70213;SDS011;60138;55.808;37.078;2022-11-11T18:28:39;10.40;;;6.40;;
70213;SDS011;60138;55.808;37.078;2022-11-11T18:31:24;10.65;;;7.07;;
70213;SDS011;60138;55.808;37.078;2022-11-11T18:34:08;10.45;;;6.50;;
70213;SDS011;60138;55.808;37.078;2022-11-11T18:36:52;13.27;;;6.60;;
70213;SDS011;60138;55.808;37.078;2022-11-11T18:39:37;8.00;;;6.25;;
70213;SDS011;60138;55.808;37.078;2022-11-11T18:42:21;12.13;;;7.30;;
70213;SDS011;60138;55.808;37.078;2022-11-11T18:45:05;11.82;;;6.80;;
70213;SDS011;60138;55.808;37.078;2022-11-11T18:47:49;11.00;;;6.82;;
70213;SDS011;60138;55.808;37.078;2022-11-11T18:50:34;11.90;;;6.83;;
70213;SDS011;60138;55.808;37.078;2022-11-11T18:53:18;9.25;;;6.20;;
70213;SDS011;60138;55.808;37.078;2022-11-11T18:56:07;13.00;;;7.55;;
70213;SDS011;60138;55.808;37.078;2022-11-11T18:59:02;12.20;;;6.20;;
70213;SDS011;60138;55.808;37.078;2022-11-11T19:01:46;10.32;;;6.80;;